This is the latest recevied weather packets stored in our database for station/object EFTU. If no packets are shown the sender has not sent any weather packets the latest 10 day(s).
| Time | Temp. | Humidity | Pressure | Rain* | Wind** | Luminosity | Snow |
|---|---|---|---|---|---|---|---|
| 1777422412 | -1.11° C | 59% | 1026 hPa | - | - | - | - |
| 1777421210 | -0.56° C | 58% | 1025.9 hPa | - | - | - | - |
| 1777420010 | -1.11° C | 59% | 1025.8 hPa | - | - | - | - |
| 1777418810 | -1.67° C | 59% | 1025.8 hPa | - | - | - | - |
| 1777417610 | -1.11° C | 58% | 1025.8 hPa | - | - | - | - |
| 1777416410 | -1.11° C | 57% | 1025.6 hPa | - | - | - | - |
| 1777415212 | -1.67° C | 57% | 1025.5 hPa | - | - | - | - |
| 1777414010 | -1.11° C | 57% | 1025.5 hPa | - | - | - | - |
| 1777412810 | -0.56° C | 56% | 1025.3 hPa | - | - | - | - |
| 1777411609 | -1.11° C | 56% | 1025.1 hPa | - | - | - | - |
| 1777410410 | 0.56° C | 52% | 1025.1 hPa | - | - | - | - |
| 1777409210 | 0° C | 52% | 1025 hPa | - | - | - | - |
| 1777408010 | 1.11° C | 49% | 1024.9 hPa | - | - | - | - |
| 1777406809 | 1.11° C | 48% | 1024.9 hPa | - | - | - | - |
| 1777405610 | 1.67° C | 46% | 1024.7 hPa | - | - | - | - |
| 1777404410 | 2.22° C | 44% | 1024.6 hPa | - | - | - | - |
| 1777403209 | 2.78° C | 41% | 1024.3 hPa | - | - | - | - |
| 1777402009 | 3.89° C | 39% | 1024 hPa | - | - | - | - |
| 1777400809 | 3.89° C | 39% | 1023.8 hPa | - | - | - | - |
| 1777399609 | 4.44° C | 37% | 1023.5 hPa | - | - | - | - |
| 1777398409 | 5° C | 35% | 1023.2 hPa | - | - | - | - |
| 1777397209 | 5.56° C | 36% | 1022.9 hPa | - | - | - | - |
| 1777396008 | 5.56° C | 34% | 1022.6 hPa | - | - | - | - |
| 1777394809 | 6.11° C | 33% | 1022.2 hPa | - | - | - | - |
| 1777393609 | 6.67° C | 32% | 1022.1 hPa | - | - | - | - |
* Rain since midnight (hover to see other rain measurements)
** Current wind speed in m/s (hover to see current wind gust speed)